EW5908 Weather Reports


Display with metric or nautical units.
time (UTC)temp
F
wind
direction
speed
MPH
gust
MPH
rain 1hr
in
rain 24hr
in
rain mn
in
humidity
%
barometer
mb
20240617194024 61 20 0.0 0.0 0.00 0.06 0.05 95 1011.4
20240617193024 61 34 0.0 0.0 0.00 0.06 0.05 95 1010.7
20240617192023 61 42 0.0 0.0 0.00 0.06 0.05 95 1010.3
20240617191029 60 11 0.0 0.0 0.00 0.06 0.05 95 1010.2
20240617191025 61 17 0.0 0.0 0.00 0.06 0.05 95 1010.2
20240617190133 60 147 0.0 0.0 0.00 0.06 0.05 95 1009.5
20240617185132 60 111 0.0 0.0 0.00 0.06 0.05 95 1009.5
20240617183024 60 127 0.0 0.0 0.00 0.06 0.05 95 1009.9
20240617182023 60 61 0.0 0.0 0.00 0.06 0.05 95 1009.7
20240617181022 60 44 0.0 0.0 0.00 0.06 0.05 95 1010.2
20240617180022 60 99 0.0 0.0 0.00 0.06 0.05 96 1010.1
20240617175026 58 39 0.0 0.0 0.00 0.06 0.05 95 1010.6
20240617175022 59 51 0.0 0.0 0.00 0.06 0.05 95 1010.2
20240617173021 59 20 0.0 0.0 0.00 0.06 0.05 95 1011.1
20240617172027 58 11 0.0 0.0 0.00 0.06 0.05 95 1011.5
20240617172023 58 23 0.0 0.0 0.00 0.06 0.05 95 1011.2
20240617170021 58 320 0.0 0.0 0.00 0.07 0.05 95 1011.8
20240617165022 58 323 0.0 0.0 0.00 0.07 0.05 95 1011.7
20240617164020 58 45 0.0 0.0 0.00 0.07 0.05 95 1011.6
20240617163020 58 45 0.0 0.0 0.00 0.07 0.05 95 1011.4
20240617162021 58 49 0.0 0.0 0.00 0.07 0.05 95 1011.0
20240617161022 58 164 0.0 0.0 0.00 0.07 0.05 95 1010.8
20240617160020 57 140 0.0 0.0 0.00 0.07 0.05 95 1010.6
20240617155020 57 87 0.0 0.0 0.00 0.07 0.05 95 1010.4
20240617154022 57 118 0.0 0.0 0.00 0.08 0.05 95 1010.0
20240617153019 57 86 0.0 0.0 0.00 0.08 0.05 95 1009.9
20240617152019 56 59 0.0 0.0 0.00 0.08 0.05 95 1010.1
20240617151019 56 168 0.0 0.0 0.00 0.08 0.05 94 1010.4
20240617150018 56 59 0.0 0.0 0.00 0.08 0.05 94 1010.4
20240617145018 55 31 0.0 0.0 0.00 0.08 0.05 94 1010.4
20240617144018 55 44 0.0 0.0 0.00 0.08 0.05 94 1010.5
20240617143017 55 217 0.0 0.0 0.00 0.08 0.05 94 1010.4
20240617142017 55 44 0.0 0.0 0.00 0.08 0.05 94 1010.3
20240617141018 55 17 0.0 0.0 0.00 0.08 0.05 94 1010.6
20240617140018 55 49 0.0 0.0 0.00 0.08 0.05 94 1011.4
20240617135017 55 71 0.0 0.0 0.00 0.08 0.05 93 1011.4
20240617134018 55 103 0.0 0.0 0.00 0.08 0.05 93 1011.7
20240617133016 55 55 0.0 0.0 0.00 0.08 0.05 93 1011.4
20240617132019 55 59 0.0 0.0 0.00 0.08 0.05 94 1011.7
20240617131016 55 45 0.0 0.0 0.00 0.08 0.05 93 1011.6
20240617130016 55 24 0.0 0.0 0.00 0.08 0.05 93 1011.6
20240617125016 56 16 0.0 0.0 0.00 0.08 0.05 93 1011.0
20240617124016 56 16 0.0 0.0 0.00 0.08 0.05 93 1011.8
20240617123016 56 344 0.0 0.0 0.00 0.08 0.05 94 1012.3
20240617122015 57 0 0.0 0.0 0.00 0.08 0.05 94 1012.0
20240617121015 58 351 0.0 0.0 0.00 0.08 0.05 94 1012.1
20240617120017 58 4 0.0 0.0 0.00 0.08 0.05 93 1011.8
20240617115015 58 13 0.0 0.0 0.00 0.08 0.05 93 1012.8
20240617114015 58 358 0.0 0.0 0.00 0.08 0.05 93 1012.7
20240617113015 59 355 0.0 0.0 0.00 0.08 0.05 92 1012.4
20240617112014 59 6 0.0 0.0 0.00 0.08 0.05 92 1011.9
20240617111014 59 76 0.0 0.0 0.03 0.08 0.05 91 1012.0
20240617110015 59 171 0.0 0.0 0.04 0.08 0.05 90 1011.7
20240617105015 60 341 0.0 0.0 0.04 0.08 0.05 88 1009.5
20240617104014 60 0 0.0 0.0 0.04 0.08 0.05 85 1009.1
20240617103014 62 63 0.0 0.0 0.04 0.08 0.05 82 1010.7
20240617102013 65 290 0.0 0.0 0.04 0.08 0.05 72 1011.2
20240617101013 70 312 0.0 0.0 0.01 0.05 0.02 58 1010.0
20240617100013 70 306 0.0 0.0 0.00 0.04 0.01 57 1009.2
20240617095012 71 319 0.0 0.0 0.00 0.04 0.01 61 1010.0
20240617094014 71 1 0.0 0.0 0.00 0.04 0.01 69 1008.9
20240617093012 72 14 0.0 0.0 0.00 0.04 0.01 69 1007.9
20240617092012 72 21 0.0 0.0 0.00 0.04 0.01 70 1007.4
20240617091012 72 8 0.0 0.0 0.00 0.04 0.01 71 1007.3
20240617090011 72 27 0.0 0.0 0.00 0.04 0.01 70 1007.3
20240617085011 72 41 0.0 0.0 0.00 0.04 0.01 70 1007.5
20240617084016 72 28 0.0 0.0 0.00 0.04 0.01 69 1007.5
20240617084012 72 25 0.0 0.0 0.00 0.04 0.01 70 1007.6
20240617082011 72 30 0.0 0.0 0.00 0.04 0.01 69 1007.4
20240617081011 72 21 0.0 0.0 0.00 0.04 0.01 68 1007.5
20240617080011 72 20 0.0 0.0 0.00 0.04 0.01 68 1007.2
20240617075010 73 6 0.0 0.0 0.00 0.04 0.01 68 1007.6
20240617074010 73 0 0.0 0.0 0.00 0.04 0.01 70 1007.9
20240617073009 73 18 0.0 0.0 0.00 0.04 0.01 72 1007.6
20240617072009 73 3 0.0 0.0 0.00 0.04 0.01 72 1007.7
20240617071009 73 20 0.0 0.0 0.00 0.04 0.01 73 1007.7
20240617070013 73 23 0.0 0.0 0.00 0.04 0.01 77 1007.9
20240617070009 73 10 0.0 0.0 0.00 0.04 0.01 75 1007.7
20240617064011 74 6 0.0 0.0 0.00 0.04 0.01 78 1007.7
20240617063008 74 10 0.0 0.0 0.00 0.04 0.01 78 1007.7
20240617062009 74 3 0.0 0.0 0.00 0.04 0.01 79 1007.6
20240617061010 75 351 0.0 0.0 0.01 0.04 0.01 81 1007.5
20240617060012 75 347 0.0 0.0 0.01 0.04 0.01 82 1007.2
20240617060008 75 4 0.0 0.0 0.01 0.04 0.01 81 1007.3
20240617054007 76 10 0.0 0.0 0.01 0.04 0.01 83 1007.2
20240617053014 76 310 0.0 0.0 0.02 0.04 0.01 83 1007.5
20240617053010 76 309 0.0 0.0 0.01 0.04 0.01 83 1007.3
20240617051008 76 306 0.0 0.0 0.01 0.03 0.00 83 1007.2
20240617050014 75 183 0.0 0.0 0.01 0.03 0.03 86 1007.1
20240617050009 76 224 0.0 0.0 0.01 0.03 0.00 85 1007.2
20240617044006 75 183 0.0 0.0 0.01 0.03 0.03 85 1006.9
20240617043007 75 183 0.0 0.0 0.01 0.03 0.03 85 1006.8
20240617042007 75 183 0.0 0.0 0.00 0.02 0.02 85 1006.6
20240617041006 75 183 0.0 0.0 0.00 0.02 0.02 85 1006.5
20240617040007 76 183 0.0 0.0 0.00 0.02 0.02 85 1006.5
20240617035006 76 183 0.0 0.0 0.00 0.02 0.02 85 1006.3
20240617034007 76 183 0.0 0.0 0.00 0.02 0.02 84 1006.2
20240617033005 77 183 0.0 0.0 0.00 0.02 0.02 84 1006.2
20240617032005 77 183 0.0 0.0 0.00 0.02 0.02 83 1006.2
20240617031005 77 183 0.0 0.0 0.00 0.02 0.02 83 1006.1
20240617030005 77 183 0.0 0.0 0.00 0.02 0.02 83 1006.2
20240617025004 78 183 0.0 0.0 0.00 0.02 0.02 82 1006.1
20240617024005 78 183 0.0 0.0 0.00 0.02 0.02 81 1005.7
20240617023004 79 183 0.0 0.0 0.00 0.02 0.02 80 1005.4
20240617022005 80 183 0.0 0.0 0.00 0.02 0.02 78 1005.3
20240617021003 81 295 0.0 0.0 0.00 0.02 0.02 75 1005.0
20240617020003 82 295 0.0 0.0 0.00 0.02 0.02 74 1004.8
20240617015004 82 295 0.0 0.0 0.00 0.02 0.02 72 1004.7
20240617014003 83 295 0.0 0.0 0.00 0.02 0.02 71 1004.5
20240617013003 83 295 0.0 0.0 0.00 0.02 0.02 70 1004.6
20240617012003 84 288 0.0 0.0 0.00 0.02 0.02 69 1004.5
20240617011005 84 288 0.0 0.0 0.00 0.02 0.02 68 1004.6
20240617010003 85 288 0.0 0.0 0.00 0.02 0.02 67 1004.6
20240617005002 85 281 0.0 0.0 0.00 0.02 0.02 67 1004.5
20240617004004 85 248 0.0 0.0 0.00 0.02 0.02 67 1004.5
20240617003004 85 285 0.0 0.0 0.00 0.02 0.02 69 1004.4
20240617002006 86 283 0.0 0.0 0.00 0.02 0.02 70 1004.0
20240617002002 86 288 0.0 0.0 0.00 0.02 0.02 69 1004.4
20240617000001 87 255 0.0 0.0 0.00 0.02 0.02 70 1003.7
20240616235005 86 197 0.0 0.0 0.00 0.02 0.02 69 1003.4
20240616235001 87 224 0.0 0.0 0.00 0.02 0.02 69 1003.4
20240616233001 86 154 0.0 0.0 0.00 0.02 0.02 69 1003.3
20240616232000 87 230 0.0 0.0 0.00 0.02 0.02 69 1003.2
20240616231001 87 154 0.0 0.0 0.00 0.02 0.02 68 1003.1
20240616230000 87 224 0.0 0.0 0.00 0.02 0.02 69 1003.1
20240616225001 87 317 0.0 0.0 0.00 0.02 0.02 69 1003.1
20240616223959 87 255 0.0 0.0 0.00 0.02 0.02 68 1002.9
20240616222959 87 189 0.0 0.0 0.00 0.02 0.02 68 1002.8
20240616222004 87 145 0.0 0.0 0.00 0.02 0.02 66 1002.6
20240616221959 87 162 0.0 0.0 0.00 0.02 0.02 67 1002.8
20240616215959 87 173 0.0 0.0 0.00 0.02 0.02 67 1002.7
20240616214958 87 186 0.0 0.0 0.00 0.02 0.02 67 1002.7
20240616213958 87 244 0.0 0.0 0.00 0.02 0.02 66 1002.8
20240616213001 87 255 0.0 0.0 0.00 0.02 0.02 66 1002.8
20240616211958 87 241 0.0 0.0 0.00 0.02 0.02 66 1002.8
20240616210958 86 182 0.0 0.0 0.00 0.02 0.02 67 1002.8
20240616205958 87 264 0.0 0.0 0.00 0.02 0.02 66 1002.8
20240616205000 87 245 0.0 0.0 0.00 0.02 0.02 66 1002.9
20240616203958 87 124 0.0 0.0 0.00 0.02 0.02 64 1002.8
20240616202958 87 192 0.0 0.0 0.00 0.02 0.02 66 1002.8
20240616201957 87 144 0.0 0.0 0.00 0.02 0.02 66 1002.7
20240616200956 87 296 0.0 0.0 0.00 0.02 0.02 64 1002.7
20240616195956 87 193 0.0 0.0 0.00 0.02 0.02 65 1002.7